AFR25 KLAX-LFPG
Flight info
| Callsign | AFR25 |
|---|---|
| Flight time | N/A |
| Altitude | 33000 |
| Route | ORCKA5 LAS Q70 BLIPP Q842 WINEN DCT HELPR DCT CKW DCT KD78U DCT KD87W DCT KP06Y DCT KP12A/N0480F350 DCT GABOV DCT ELVEL DCT 5430N08000W 57N070W DCT KLIPS DCT SINGA/M083F350 DCT RADUN DCT 61N050W/M084F370 6130N04000W 61N030W 59N020W DCT AGORI/N0478F370 DCT OSBOX DCT APSOV DCT PEPOD DCT MAKUX DCT SOSIM L15 KEPAD L151 MID/N0478F290 Y803 SFD UM605 BIBAX BIBAX9E |
| Aircraft | B77W/H-SDE1E2E3FGHIJ2J3J4J5M1RWXY/LB1D1 |
Departure
| Time | 2026-05-04 02:21 |
|---|---|
| Airport | Los Angeles International Airport (KLAX) |
Arrival
| Time | N/A |
|---|---|
| Airport | Charles de Gaulle International Airport (LFPG) |
| Time | Latitude | Longitude | Altitude | Speed | Heading |
|---|---|---|---|---|---|
| 2026-05-04 01:48 | 33.94279 | -118.41565 | 98 ft | 0 kts | 83° |
| 2026-05-04 02:02 | 33.94279 | -118.41566 | 97 ft | 1 kts | 83° |
| 2026-05-04 02:03 | 33.94278 | -118.41594 | 93 ft | 4 kts | 98° |
| 2026-05-04 02:03 | 33.94285 | -118.41624 | 96 ft | 4 kts | 118° |
| 2026-05-04 02:03 | 33.94300 | -118.41650 | 95 ft | 4 kts | 137° |
| 2026-05-04 02:03 | 33.94322 | -118.41668 | 97 ft | 4 kts | 160° |
| 2026-05-04 02:04 | 33.94336 | -118.41673 | 98 ft | 0 kts | 173° |
| 2026-05-04 02:07 | 33.94327 | -118.41670 | 100 ft | 4 kts | 157° |
| 2026-05-04 02:07 | 33.94327 | -118.41645 | 100 ft | 3 kts | 58° |
| 2026-05-04 02:08 | 33.94347 | -118.41648 | 101 ft | 3 kts | 321° |
| 2026-05-04 02:08 | 33.94353 | -118.41676 | 100 ft | 3 kts | 280° |
| 2026-05-04 02:08 | 33.94355 | -118.41704 | 97 ft | 3 kts | 273° |
| 2026-05-04 02:08 | 33.94355 | -118.41733 | 97 ft | 4 kts | 266° |
| 2026-05-04 02:09 | 33.94352 | -118.41763 | 97 ft | 4 kts | 262° |
| 2026-05-04 02:09 | 33.94332 | -118.41776 | 100 ft | 4 kts | 173° |
| 2026-05-04 02:09 | 33.94302 | -118.41769 | 99 ft | 5 kts | 169° |
| 2026-05-04 02:09 | 33.94258 | -118.41762 | 99 ft | 10 kts | 173° |
| 2026-05-04 02:10 | 33.94169 | -118.41749 | 98 ft | 14 kts | 173° |
| 2026-05-04 02:10 | 33.94084 | -118.41736 | 98 ft | 14 kts | 173° |
| 2026-05-04 02:10 | 33.93989 | -118.41723 | 99 ft | 14 kts | 173° |
| 2026-05-04 02:10 | 33.93892 | -118.41708 | 98 ft | 14 kts | 172° |
| 2026-05-04 02:11 | 33.93801 | -118.41694 | 101 ft | 10 kts | 173° |
| 2026-05-04 02:11 | 33.93760 | -118.41688 | 100 ft | 8 kts | 173° |
| 2026-05-04 02:11 | 33.93721 | -118.41645 | 103 ft | 8 kts | 107° |
| 2026-05-04 02:11 | 33.93722 | -118.41541 | 103 ft | 11 kts | 83° |
| 2026-05-04 02:12 | 33.93731 | -118.41452 | 100 ft | 9 kts | 83° |
| 2026-05-04 02:12 | 33.93736 | -118.41401 | 100 ft | 9 kts | 83° |
| 2026-05-04 02:12 | 33.93743 | -118.41326 | 100 ft | 9 kts | 82° |
| 2026-05-04 02:12 | 33.93751 | -118.41249 | 102 ft | 10 kts | 83° |
| 2026-05-04 02:13 | 33.93762 | -118.41147 | 100 ft | 13 kts | 83° |
| 2026-05-04 02:13 | 33.93772 | -118.41038 | 98 ft | 13 kts | 83° |
| 2026-05-04 02:13 | 33.93783 | -118.40932 | 98 ft | 13 kts | 83° |
| 2026-05-04 02:13 | 33.93794 | -118.40826 | 99 ft | 13 kts | 83° |
| 2026-05-04 02:14 | 33.93805 | -118.40721 | 99 ft | 13 kts | 83° |
| 2026-05-04 02:14 | 33.93815 | -118.40616 | 99 ft | 13 kts | 83° |
| 2026-05-04 02:14 | 33.93826 | -118.40509 | 102 ft | 13 kts | 83° |
| 2026-05-04 02:14 | 33.93837 | -118.40405 | 102 ft | 13 kts | 83° |
| 2026-05-04 02:15 | 33.93851 | -118.40268 | 102 ft | 18 kts | 83° |
| 2026-05-04 02:15 | 33.93867 | -118.40117 | 104 ft | 18 kts | 83° |
| 2026-05-04 02:15 | 33.93882 | -118.39967 | 101 ft | 18 kts | 83° |
| 2026-05-04 02:15 | 33.93896 | -118.39820 | 103 ft | 18 kts | 83° |
| 2026-05-04 02:16 | 33.93912 | -118.39670 | 102 ft | 18 kts | 83° |
| 2026-05-04 02:16 | 33.93927 | -118.39517 | 101 ft | 18 kts | 82° |
| 2026-05-04 02:16 | 33.93944 | -118.39365 | 100 ft | 18 kts | 83° |
| 2026-05-04 02:16 | 33.93959 | -118.39213 | 99 ft | 18 kts | 83° |
| 2026-05-04 02:17 | 33.93975 | -118.39061 | 99 ft | 18 kts | 83° |
| 2026-05-04 02:17 | 33.93990 | -118.38910 | 99 ft | 18 kts | 83° |
| 2026-05-04 02:17 | 33.94006 | -118.38757 | 99 ft | 18 kts | 83° |
| 2026-05-04 02:17 | 33.94021 | -118.38603 | 100 ft | 18 kts | 83° |
| 2026-05-04 02:18 | 33.94034 | -118.38476 | 102 ft | 13 kts | 85° |
| 2026-05-04 02:18 | 33.94044 | -118.38383 | 100 ft | 11 kts | 83° |
| 2026-05-04 02:18 | 33.94053 | -118.38292 | 103 ft | 11 kts | 82° |
| 2026-05-04 02:18 | 33.94063 | -118.38200 | 99 ft | 11 kts | 83° |
| 2026-05-04 02:19 | 33.94072 | -118.38111 | 98 ft | 7 kts | 82° |
| 2026-05-04 02:19 | 33.94076 | -118.38075 | 98 ft | 1 kts | 81° |
| 2026-05-04 02:19 | 33.94077 | -118.38069 | 98 ft | 1 kts | 83° |
| 2026-05-04 02:19 | 33.94066 | -118.38030 | 100 ft | 10 kts | 125° |
| 2026-05-04 02:20 | 33.94013 | -118.38003 | 98 ft | 8 kts | 192° |
| 2026-05-04 02:20 | 33.93983 | -118.38057 | 99 ft | 8 kts | 255° |
| 2026-05-04 02:20 | 33.93973 | -118.38129 | 99 ft | 12 kts | 262° |
| 2026-05-04 02:20 | 33.93952 | -118.38326 | 106 ft | 48 kts | 263° |
| 2026-05-04 02:21 | 33.93883 | -118.39008 | 103 ft | 115 kts | 263° |
| 2026-05-04 02:21 | 33.93764 | -118.40157 | 105 ft | 167 kts | 263° |
| 2026-05-04 02:21 | 33.93601 | -118.41628 | 467 ft | 178 kts | 261° |
| 2026-05-04 02:21 | 33.93418 | -118.43120 | 1040 ft | 183 kts | 262° |
| 2026-05-04 02:22 | 33.93265 | -118.44652 | 1616 ft | 187 kts | 264° |
| 2026-05-04 02:22 | 33.93137 | -118.46198 | 2207 ft | 183 kts | 264° |
| 2026-05-04 02:22 | 33.92863 | -118.47712 | 2543 ft | 192 kts | 249° |
| 2026-05-04 02:22 | 33.92313 | -118.49191 | 2950 ft | 193 kts | 248° |
| 2026-05-04 02:23 | 33.91789 | -118.50713 | 3319 ft | 199 kts | 250° |
| 2026-05-04 02:23 | 33.91251 | -118.52299 | 3605 ft | 211 kts | 248° |
| 2026-05-04 02:23 | 33.90652 | -118.53987 | 3846 ft | 227 kts | 248° |
| 2026-05-04 02:23 | 33.90056 | -118.55742 | 4298 ft | 234 kts | 247° |
| 2026-05-04 02:24 | 33.89377 | -118.57541 | 4783 ft | 239 kts | 246° |
| 2026-05-04 02:24 | 33.88707 | -118.59350 | 5439 ft | 232 kts | 241° |
| 2026-05-04 02:24 | 33.87572 | -118.60749 | 5863 ft | 243 kts | 208° |
| 2026-05-04 02:24 | 33.85893 | -118.61077 | 6263 ft | 253 kts | 171° |
| 2026-05-04 02:25 | 33.84329 | -118.60116 | 6774 ft | 258 kts | 136° |
| 2026-05-04 02:25 | 33.83310 | -118.58359 | 7297 ft | 260 kts | 118° |
| 2026-05-04 02:25 | 33.82739 | -118.56278 | 7631 ft | 269 kts | 97° |
| 2026-05-04 02:25 | 33.82908 | -118.54040 | 8071 ft | 273 kts | 68° |
| 2026-05-04 02:26 | 33.83987 | -118.52189 | 8442 ft | 274 kts | 34° |
| 2026-05-04 02:26 | 33.85576 | -118.50959 | 8913 ft | 272 kts | 30° |
| 2026-05-04 02:26 | 33.87154 | -118.49630 | 9290 ft | 280 kts | 37° |
| 2026-05-04 02:26 | 33.88673 | -118.48160 | 9784 ft | 281 kts | 37° |
| 2026-05-04 02:27 | 33.90208 | -118.46654 | 10118 ft | 288 kts | 39° |
| 2026-05-04 02:27 | 33.91746 | -118.45094 | 10553 ft | 291 kts | 40° |
| 2026-05-04 02:27 | 33.93168 | -118.43396 | 10999 ft | 294 kts | 49° |
| 2026-05-04 02:27 | 33.94432 | -118.41433 | 11485 ft | 297 kts | 56° |
| 2026-05-04 02:28 | 33.95594 | -118.39352 | 12030 ft | 300 kts | 58° |
| 2026-05-04 02:28 | 33.96748 | -118.37250 | 12618 ft | 303 kts | 57° |
| 2026-05-04 02:28 | 33.97932 | -118.35123 | 13040 ft | 308 kts | 57° |
| 2026-05-04 02:28 | 33.99158 | -118.32945 | 12997 ft | 309 kts | 57° |
| 2026-05-04 02:29 | 34.00341 | -118.30854 | 13328 ft | 310 kts | 57° |
| 2026-05-04 02:29 | 34.01557 | -118.28706 | 13924 ft | 312 kts | 57° |
| 2026-05-04 02:29 | 34.02793 | -118.26526 | 14405 ft | 317 kts | 56° |
| 2026-05-04 02:29 | 34.04044 | -118.24319 | 14878 ft | 322 kts | 56° |
| 2026-05-04 02:30 | 34.05316 | -118.22075 | 15372 ft | 327 kts | 56° |
| 2026-05-04 02:30 | 34.06609 | -118.19792 | 15846 ft | 332 kts | 56° |
| 2026-05-04 02:30 | 34.07919 | -118.17478 | 16337 ft | 337 kts | 55° |
| 2026-05-04 02:30 | 34.09252 | -118.15123 | 16814 ft | 342 kts | 55° |
| 2026-05-04 02:31 | 34.10600 | -118.12737 | 17319 ft | 346 kts | 54° |
| 2026-05-04 02:31 | 34.11952 | -118.10343 | 17821 ft | 352 kts | 54° |
| 2026-05-04 02:31 | 34.13332 | -118.07898 | 18303 ft | 357 kts | 54° |
| 2026-05-04 02:31 | 34.14728 | -118.05423 | 18715 ft | 361 kts | 54° |
| 2026-05-04 02:32 | 34.16147 | -118.02906 | 19158 ft | 365 kts | 53° |
| 2026-05-04 02:32 | 34.17581 | -118.00359 | 19617 ft | 368 kts | 53° |
| 2026-05-04 02:32 | 34.19028 | -117.97784 | 20060 ft | 372 kts | 53° |
| 2026-05-04 02:32 | 34.20493 | -117.95176 | 20399 ft | 381 kts | 53° |
| 2026-05-04 02:33 | 34.22005 | -117.92482 | 20608 ft | 393 kts | 54° |
| 2026-05-04 02:33 | 34.23559 | -117.89717 | 20949 ft | 401 kts | 53° |
| 2026-05-04 02:33 | 34.25147 | -117.86899 | 21272 ft | 412 kts | 53° |
| 2026-05-04 02:33 | 34.26783 | -117.83986 | 21441 ft | 428 kts | 54° |
| 2026-05-04 02:34 | 34.28487 | -117.80941 | 21555 ft | 446 kts | 54° |
| 2026-05-04 02:34 | 34.30260 | -117.77767 | 21687 ft | 464 kts | 54° |
| 2026-05-04 02:34 | 34.32097 | -117.74478 | 21818 ft | 481 kts | 54° |
| 2026-05-04 02:34 | 34.34000 | -117.71069 | 21937 ft | 496 kts | 54° |
| 2026-05-04 02:35 | 34.35959 | -117.67567 | 22160 ft | 508 kts | 53° |
| 2026-05-04 02:35 | 34.38023 | -117.64046 | 22494 ft | 516 kts | 52° |
| 2026-05-04 02:35 | 34.40146 | -117.60519 | 22951 ft | 520 kts | 52° |
| 2026-05-04 02:35 | 34.42288 | -117.56980 | 23427 ft | 524 kts | 52° |
| 2026-05-04 02:36 | 34.44452 | -117.53401 | 23836 ft | 528 kts | 51° |
| 2026-05-04 02:36 | 34.46626 | -117.49788 | 24262 ft | 533 kts | 52° |
| 2026-05-04 02:36 | 34.48809 | -117.46139 | 24683 ft | 535 kts | 52° |
| 2026-05-04 02:36 | 34.50935 | -117.42568 | 25245 ft | 535 kts | 52° |
| 2026-05-04 02:37 | 34.53113 | -117.38899 | 25698 ft | 537 kts | 52° |
| 2026-05-04 02:37 | 34.55297 | -117.35213 | 26060 ft | 542 kts | 52° |
| 2026-05-04 02:37 | 34.57508 | -117.31479 | 26427 ft | 546 kts | 52° |
| 2026-05-04 02:37 | 34.59377 | -117.28321 | 26758 ft | 549 kts | 51° |
| 2026-05-04 02:38 | 34.60436 | -117.26530 | 26947 ft | 550 kts | 51° |
| 2026-05-04 02:38 | 34.62691 | -117.22713 | 27328 ft | 553 kts | 51° |
| 2026-05-04 02:38 | 34.64981 | -117.18834 | 27717 ft | 556 kts | 51° |
| 2026-05-04 02:38 | 34.67244 | -117.14998 | 28001 ft | 558 kts | 51° |
| 2026-05-04 02:39 | 34.69510 | -117.11151 | 28377 ft | 560 kts | 51° |
| 2026-05-04 02:39 | 34.71797 | -117.07265 | 28713 ft | 563 kts | 51° |
| 2026-05-04 02:39 | 34.74083 | -117.03376 | 29021 ft | 566 kts | 51° |
| 2026-05-04 02:39 | 34.76332 | -116.99545 | 29323 ft | 569 kts | 51° |
| 2026-05-04 02:40 | 34.78661 | -116.95574 | 29742 ft | 569 kts | 51° |
| 2026-05-04 02:40 | 34.80955 | -116.91658 | 30153 ft | 568 kts | 51° |
| 2026-05-04 02:40 | 34.83254 | -116.87728 | 30485 ft | 570 kts | 51° |
| 2026-05-04 02:40 | 34.85528 | -116.83838 | 30729 ft | 572 kts | 51° |
| 2026-05-04 02:41 | 34.87832 | -116.79893 | 30979 ft | 574 kts | 51° |
| 2026-05-04 02:41 | 34.90152 | -116.75918 | 31240 ft | 576 kts | 50° |
| 2026-05-04 02:41 | 34.92542 | -116.72002 | 31484 ft | 575 kts | 46° |
| 2026-05-04 02:41 | 34.95175 | -116.68335 | 31724 ft | 574 kts | 41° |
| 2026-05-04 02:42 | 34.97900 | -116.64781 | 31953 ft | 575 kts | 40° |
| 2026-05-04 02:42 | 35.00654 | -116.61237 | 32186 ft | 577 kts | 40° |
| 2026-05-04 02:42 | 35.03414 | -116.57681 | 32433 ft | 578 kts | 40° |
| 2026-05-04 02:42 | 35.06170 | -116.54099 | 32804 ft | 577 kts | 40° |
| 2026-05-04 02:43 | 35.11657 | -116.46881 | 32798 ft | 580 kts | 41° |
| 2026-05-04 02:43 | 35.17085 | -116.39670 | 32827 ft | 575 kts | 41° |
| 2026-05-04 02:44 | 35.22492 | -116.32475 | 32791 ft | 572 kts | 41° |
| 2026-05-04 02:44 | 35.27859 | -116.25337 | 32781 ft | 569 kts | 41° |
| 2026-05-04 02:45 | 35.33208 | -116.18207 | 32763 ft | 566 kts | 41° |
| 2026-05-04 02:45 | 35.38522 | -116.11115 | 32784 ft | 565 kts | 41° |
| 2026-05-04 02:46 | 35.43834 | -116.04007 | 32789 ft | 566 kts | 41° |
| 2026-05-04 02:46 | 35.49127 | -115.96905 | 32805 ft | 567 kts | 41° |
| 2026-05-04 02:47 | 35.54454 | -115.89745 | 32805 ft | 568 kts | 42° |
| 2026-05-04 02:47 | 35.59770 | -115.82578 | 32800 ft | 567 kts | 42° |
| 2026-05-04 02:48 | 35.65081 | -115.75399 | 32805 ft | 567 kts | 42° |
| 2026-05-04 02:48 | 35.70338 | -115.68189 | 32807 ft | 566 kts | 43° |
| 2026-05-04 02:49 | 35.75573 | -115.60966 | 32806 ft | 565 kts | 43° |
| 2026-05-04 02:49 | 35.80797 | -115.53754 | 32818 ft | 563 kts | 43° |
| 2026-05-04 02:50 | 35.86014 | -115.46547 | 32789 ft | 563 kts | 43° |
| 2026-05-04 02:50 | 35.91208 | -115.39358 | 32812 ft | 561 kts | 43° |
| 2026-05-04 02:51 | 35.96380 | -115.32182 | 32812 ft | 559 kts | 43° |
| 2026-05-04 02:51 | 36.01533 | -115.25015 | 32752 ft | 558 kts | 44° |
| 2026-05-04 02:52 | 36.06681 | -115.17850 | 32761 ft | 556 kts | 43° |
| 2026-05-04 02:52 | 36.12210 | -115.11275 | 32768 ft | 549 kts | 34° |
| 2026-05-04 02:53 | 36.18033 | -115.05139 | 32701 ft | 551 kts | 34° |
| 2026-05-04 02:53 | 36.23857 | -114.98941 | 32700 ft | 553 kts | 35° |
| 2026-05-04 02:54 | 36.29658 | -114.92668 | 32693 ft | 554 kts | 36° |
| 2026-05-04 02:54 | 36.35468 | -114.86360 | 32679 ft | 555 kts | 36° |
| 2026-05-04 02:55 | 36.44140 | -114.76940 | 32657 ft | 554 kts | 36° |
| 2026-05-04 02:56 | 36.49939 | -114.70614 | 32648 ft | 555 kts | 36° |
| 2026-05-04 02:56 | 36.55738 | -114.64268 | 32654 ft | 555 kts | 36° |
| 2026-05-04 02:57 | 36.60522 | -114.59026 | 32652 ft | 555 kts | 36° |
| 2026-05-04 02:57 | 36.66296 | -114.52687 | 32644 ft | 555 kts | 36° |
| 2026-05-04 02:58 | 36.72192 | -114.46494 | 32652 ft | 550 kts | 30° |
| 2026-05-04 02:58 | 36.78590 | -114.41373 | 32671 ft | 545 kts | 24° |
| 2026-05-04 02:59 | 36.85066 | -114.36415 | 32696 ft | 547 kts | 24° |
| 2026-05-04 02:59 | 36.91554 | -114.31377 | 32705 ft | 549 kts | 25° |
| 2026-05-04 03:00 | 36.97504 | -114.26696 | 32695 ft | 550 kts | 25° |
| 2026-05-04 03:00 | 36.99818 | -114.24867 | 32710 ft | 550 kts | 25° |
| 2026-05-04 03:01 | 37.06288 | -114.19748 | 32731 ft | 551 kts | 25° |
| 2026-05-04 03:01 | 37.12726 | -114.14652 | 32750 ft | 551 kts | 25° |
| 2026-05-04 03:02 | 37.19248 | -114.09482 | 32750 ft | 551 kts | 25° |
| 2026-05-04 03:02 | 37.25679 | -114.04372 | 32761 ft | 550 kts | 25° |
| 2026-05-04 03:03 | 37.32180 | -113.99196 | 32787 ft | 549 kts | 25° |
| 2026-05-04 03:03 | 37.38620 | -113.94058 | 32801 ft | 548 kts | 25° |
| 2026-05-04 03:04 | 37.44999 | -113.88958 | 32804 ft | 547 kts | 25° |
| 2026-05-04 03:04 | 37.51421 | -113.83815 | 32818 ft | 546 kts | 25° |
| 2026-05-04 03:05 | 37.57824 | -113.78675 | 32820 ft | 546 kts | 26° |
| 2026-05-04 03:05 | 37.64225 | -113.73527 | 32817 ft | 544 kts | 26° |
| 2026-05-04 03:06 | 37.70581 | -113.68404 | 32829 ft | 542 kts | 26° |
| 2026-05-04 03:06 | 37.76932 | -113.63273 | 32842 ft | 541 kts | 26° |
| 2026-05-04 03:07 | 37.83273 | -113.58140 | 32856 ft | 540 kts | 27° |
| 2026-05-04 03:07 | 37.89574 | -113.52977 | 32839 ft | 541 kts | 30° |
| 2026-05-04 03:08 | 37.95325 | -113.46778 | 32834 ft | 546 kts | 41° |
| 2026-05-04 03:08 | 38.00268 | -113.39435 | 32841 ft | 547 kts | 48° |
| 2026-05-04 03:09 | 38.05012 | -113.31890 | 32826 ft | 546 kts | 48° |
| 2026-05-04 03:09 | 38.09755 | -113.24390 | 32834 ft | 545 kts | 48° |
| 2026-05-04 03:10 | 38.14518 | -113.16924 | 32859 ft | 542 kts | 49° |
| 2026-05-04 03:10 | 38.19257 | -113.09509 | 32870 ft | 540 kts | 49° |
| 2026-05-04 03:11 | 38.23978 | -113.02106 | 32897 ft | 537 kts | 49° |
| 2026-05-04 03:11 | 38.28666 | -112.94719 | 32920 ft | 536 kts | 49° |
| 2026-05-04 03:12 | 38.33276 | -112.87441 | 32929 ft | 536 kts | 49° |
| 2026-05-04 03:12 | 38.37971 | -112.80016 | 32912 ft | 538 kts | 49° |
| 2026-05-04 03:13 | 38.42646 | -112.72609 | 32887 ft | 539 kts | 50° |
| 2026-05-04 03:13 | 38.47342 | -112.65144 | 32874 ft | 540 kts | 50° |
| 2026-05-04 03:14 | 38.52009 | -112.57708 | 32850 ft | 540 kts | 50° |
| 2026-05-04 03:14 | 38.56727 | -112.50174 | 32844 ft | 540 kts | 50° |
| 2026-05-04 03:15 | 38.61385 | -112.42721 | 32847 ft | 539 kts | 50° |
| 2026-05-04 03:15 | 38.66060 | -112.35224 | 32853 ft | 539 kts | 50° |
| 2026-05-04 03:16 | 38.70729 | -112.27722 | 32882 ft | 538 kts | 50° |
| 2026-05-04 03:16 | 38.75378 | -112.20229 | 32901 ft | 537 kts | 51° |
| 2026-05-04 03:17 | 38.79999 | -112.12762 | 32869 ft | 532 kts | 51° |
| 2026-05-04 03:17 | 38.84579 | -112.05343 | 32889 ft | 528 kts | 51° |
| 2026-05-04 03:18 | 38.89133 | -111.97955 | 32869 ft | 527 kts | 51° |
| 2026-05-04 03:18 | 38.93676 | -111.90569 | 32873 ft | 527 kts | 51° |
| 2026-05-04 03:19 | 38.98227 | -111.83149 | 32868 ft | 529 kts | 51° |
| 2026-05-04 03:19 | 39.02775 | -111.75720 | 32881 ft | 530 kts | 51° |
| 2026-05-04 03:20 | 39.07325 | -111.68264 | 32888 ft | 528 kts | 52° |
| 2026-05-04 03:20 | 39.11820 | -111.60885 | 32861 ft | 521 kts | 52° |
| 2026-05-04 03:21 | 39.16296 | -111.53522 | 32891 ft | 522 kts | 52° |
| 2026-05-04 03:21 | 39.20772 | -111.46140 | 32881 ft | 523 kts | 52° |
| 2026-05-04 03:22 | 39.25252 | -111.38733 | 32888 ft | 524 kts | 52° |
| 2026-05-04 03:22 | 39.29726 | -111.31319 | 32886 ft | 523 kts | 52° |
| 2026-05-04 03:23 | 39.34197 | -111.23896 | 32910 ft | 524 kts | 52° |
| 2026-05-04 03:23 | 39.38380 | -111.16933 | 32915 ft | 524 kts | 52° |
| 2026-05-04 03:24 | 39.42519 | -111.10026 | 32903 ft | 524 kts | 52° |
| 2026-05-04 03:24 | 39.47033 | -111.02480 | 32928 ft | 523 kts | 52° |
| 2026-05-04 03:25 | 39.51455 | -110.95071 | 32951 ft | 522 kts | 52° |
| 2026-05-04 03:25 | 39.55857 | -110.87675 | 32982 ft | 522 kts | 52° |
| 2026-05-04 03:26 | 39.60312 | -110.80174 | 32991 ft | 522 kts | 52° |
| 2026-05-04 03:26 | 39.64743 | -110.72693 | 32993 ft | 522 kts | 52° |
| 2026-05-04 03:27 | 39.69166 | -110.65211 | 32996 ft | 522 kts | 52° |
| 2026-05-04 03:27 | 39.71374 | -110.61469 | 32871 ft | 522 kts | 52° |
| 2026-05-04 03:27 | 39.73582 | -110.57723 | 32861 ft | 522 kts | 52° |
| 2026-05-04 03:28 | 39.78181 | -110.50457 | 32859 ft | 521 kts | 47° |
| 2026-05-04 03:28 | 39.83095 | -110.43579 | 32860 ft | 519 kts | 46° |
| 2026-05-04 03:29 | 39.88043 | -110.36727 | 32859 ft | 518 kts | 46° |
| 2026-05-04 03:29 | 39.92869 | -110.29938 | 32837 ft | 517 kts | 46° |
| 2026-05-04 03:30 | 39.97736 | -110.23010 | 32850 ft | 517 kts | 47° |
| 2026-05-04 03:30 | 40.02539 | -110.16145 | 32823 ft | 517 kts | 47° |
| 2026-05-04 03:31 | 40.07379 | -110.09212 | 32829 ft | 516 kts | 46° |
| 2026-05-04 03:31 | 40.12215 | -110.02281 | 32804 ft | 516 kts | 46° |
| 2026-05-04 03:32 | 40.17041 | -109.95351 | 32803 ft | 515 kts | 46° |
| 2026-05-04 03:32 | 40.21858 | -109.88415 | 32807 ft | 514 kts | 46° |
| 2026-05-04 03:33 | 40.26637 | -109.81516 | 32815 ft | 514 kts | 46° |
| 2026-05-04 03:33 | 40.31448 | -109.74555 | 32829 ft | 510 kts | 46° |
| 2026-05-04 03:34 | 40.36179 | -109.67695 | 32911 ft | 505 kts | 46° |
| 2026-05-04 03:34 | 40.40841 | -109.60919 | 32938 ft | 502 kts | 47° |
| 2026-05-04 03:35 | 40.45509 | -109.54121 | 32938 ft | 500 kts | 47° |
| 2026-05-04 03:35 | 40.50164 | -109.47327 | 32947 ft | 501 kts | 47° |
| 2026-05-04 03:36 | 40.54825 | -109.40506 | 32943 ft | 503 kts | 46° |
| 2026-05-04 03:36 | 40.59507 | -109.33642 | 32907 ft | 505 kts | 47° |
| 2026-05-04 03:37 | 40.64202 | -109.26744 | 32874 ft | 506 kts | 47° |
| 2026-05-04 03:37 | 40.66207 | -109.23792 | 32867 ft | 506 kts | 47° |
| 2026-05-04 03:38 | 40.70829 | -109.16977 | 32846 ft | 506 kts | 47° |
| 2026-05-04 03:38 | 40.75513 | -109.10053 | 32868 ft | 506 kts | 46° |
| 2026-05-04 03:39 | 40.80200 | -109.03111 | 32850 ft | 506 kts | 46° |
| 2026-05-04 03:39 | 40.84873 | -108.96176 | 32865 ft | 504 kts | 46° |
| 2026-05-04 03:40 | 40.89528 | -108.89248 | 32862 ft | 504 kts | 46° |
| 2026-05-04 03:40 | 40.91818 | -108.85835 | 32844 ft | 503 kts | 46° |
| 2026-05-04 03:41 | 40.95557 | -108.80253 | 32865 ft | 502 kts | 46° |
| 2026-05-04 03:41 | 41.00720 | -108.72525 | 32871 ft | 502 kts | 46° |
| 2026-05-04 03:42 | 41.04987 | -108.66129 | 32873 ft | 502 kts | 46° |
| 2026-05-04 03:42 | 41.08598 | -108.60704 | 32890 ft | 502 kts | 46° |
| 2026-05-04 03:43 | 41.13264 | -108.53680 | 32877 ft | 503 kts | 46° |
| 2026-05-04 03:43 | 41.16963 | -108.48099 | 32897 ft | 503 kts | 46° |
| 2026-05-04 03:44 | 41.19838 | -108.43753 | 32872 ft | 503 kts | 46° |
| 2026-05-04 03:44 | 41.23942 | -108.37538 | 32874 ft | 504 kts | 46° |
| 2026-05-04 03:45 | 41.27802 | -108.31683 | 32870 ft | 504 kts | 46° |
| 2026-05-04 03:45 | 41.31261 | -108.26426 | 32867 ft | 504 kts | 46° |
| 2026-05-04 03:46 | 41.33770 | -108.22607 | 32861 ft | 504 kts | 46° |
| 2026-05-04 03:46 | 41.36338 | -108.18692 | 32850 ft | 504 kts | 46° |
| 2026-05-04 03:47 | 41.40700 | -108.12032 | 32853 ft | 504 kts | 46° |
| 2026-05-04 03:47 | 41.45281 | -108.05023 | 32853 ft | 504 kts | 46° |
| 2026-05-04 03:48 | 41.49880 | -107.97969 | 32847 ft | 504 kts | 46° |